sensor_id;sensor_type;location;lat;lon;timestamp;pressure;altitude;pressure_sealevel;temperature;humidity
11114;BME280;5610;52.154;9.198;2023-03-29T00:00:46;101004.75;;;8.36;61.69
11114;BME280;5610;52.154;9.198;2023-03-29T00:03:33;100993.06;;;8.40;62.07
11114;BME280;5610;52.154;9.198;2023-03-29T00:06:19;100999.94;;;8.44;61.87
11114;BME280;5610;52.154;9.198;2023-03-29T00:09:04;100987.47;;;8.46;61.66
11114;BME280;5610;52.154;9.198;2023-03-29T00:11:51;100985.50;;;8.50;62.48
11114;BME280;5610;52.154;9.198;2023-03-29T00:14:36;100989.31;;;8.44;64.14
11114;BME280;5610;52.154;9.198;2023-03-29T00:17:21;100976.84;;;8.46;63.87
11114;BME280;5610;52.154;9.198;2023-03-29T00:20:09;100983.28;;;8.41;63.57
11114;BME280;5610;52.154;9.198;2023-03-29T00:22:55;100977.75;;;8.45;65.39
11114;BME280;5610;52.154;9.198;2023-03-29T00:25:43;100978.09;;;8.38;66.16
11114;BME280;5610;52.154;9.198;2023-03-29T00:28:28;100967.53;;;8.17;70.33
11114;BME280;5610;52.154;9.198;2023-03-29T00:31:18;100977.56;;;7.92;74.83
11114;BME280;5610;52.154;9.198;2023-03-29T00:34:03;100967.44;;;8.00;77.57
11114;BME280;5610;52.154;9.198;2023-03-29T00:36:50;100960.00;;;7.89;80.39
11114;BME280;5610;52.154;9.198;2023-03-29T00:39:35;100958.91;;;7.93;83.28
11114;BME280;5610;52.154;9.198;2023-03-29T00:42:24;100958.47;;;7.84;86.07
11114;BME280;5610;52.154;9.198;2023-03-29T00:45:18;100950.94;;;7.93;86.37
11114;BME280;5610;52.154;9.198;2023-03-29T00:48:05;100948.94;;;7.98;88.69
11114;BME280;5610;52.154;9.198;2023-03-29T00:50:53;100948.44;;;7.90;88.74
11114;BME280;5610;52.154;9.198;2023-03-29T00:53:45;100942.47;;;7.85;90.96
11114;BME280;5610;52.154;9.198;2023-03-29T00:56:34;100941.28;;;7.92;91.91
11114;BME280;5610;52.154;9.198;2023-03-29T00:59:23;100941.41;;;7.89;92.63
11114;BME280;5610;52.154;9.198;2023-03-29T01:02:10;100927.03;;;7.75;94.80
11114;BME280;5610;52.154;9.198;2023-03-29T01:05:01;100936.00;;;7.72;96.64
11114;BME280;5610;52.154;9.198;2023-03-29T01:07:53;100937.78;;;7.71;97.97
11114;BME280;5610;52.154;9.198;2023-03-29T01:10:46;100939.78;;;7.66;99.39
11114;BME280;5610;52.154;9.198;2023-03-29T01:13:35;100932.31;;;7.56;100.00
11114;BME280;5610;52.154;9.198;2023-03-29T01:16:25;100933.78;;;7.42;100.00
11114;BME280;5610;52.154;9.198;2023-03-29T01:19:17;100920.66;;;7.39;100.00
11114;BME280;5610;52.154;9.198;2023-03-29T01:22:09;100915.41;;;7.38;100.00
11114;BME280;5610;52.154;9.198;2023-03-29T01:25:06;100925.69;;;7.25;100.00
11114;BME280;5610;52.154;9.198;2023-03-29T01:27:56;100913.63;;;7.38;100.00
11114;BME280;5610;52.154;9.198;2023-03-29T01:30:47;100918.88;;;7.40;100.00
11114;BME280;5610;52.154;9.198;2023-03-29T01:33:37;100917.09;;;7.20;100.00
11114;BME280;5610;52.154;9.198;2023-03-29T01:36:26;100907.09;;;7.06;100.00
11114;BME280;5610;52.154;9.198;2023-03-29T01:39:13;100920.09;;;6.91;100.00
11114;BME280;5610;52.154;9.198;2023-03-29T01:42:09;100905.78;;;6.74;100.00
11114;BME280;5610;52.154;9.198;2023-03-29T01:45:06;100909.50;;;6.91;100.00
11114;BME280;5610;52.154;9.198;2023-03-29T01:47:56;100894.50;;;6.91;100.00
11114;BME280;5610;52.154;9.198;2023-03-29T01:50:47;100889.19;;;6.91;100.00
11114;BME280;5610;52.154;9.198;2023-03-29T01:53:37;100881.44;;;6.86;100.00
11114;BME280;5610;52.154;9.198;2023-03-29T01:56:26;100883.16;;;6.87;100.00
11114;BME280;5610;52.154;9.198;2023-03-29T01:59:17;100883.94;;;6.89;100.00
11114;BME280;5610;52.154;9.198;2023-03-29T02:02:08;100875.88;;;6.93;100.00
11114;BME280;5610;52.154;9.198;2023-03-29T02:04:56;100871.44;;;6.93;100.00
11114;BME280;5610;52.154;9.198;2023-03-29T02:07:43;100873.03;;;6.97;100.00
11114;BME280;5610;52.154;9.198;2023-03-29T02:10:29;100867.41;;;6.84;100.00
11114;BME280;5610;52.154;9.198;2023-03-29T02:13:15;100858.38;;;6.88;100.00
11114;BME280;5610;52.154;9.198;2023-03-29T02:16:02;100863.34;;;6.96;100.00
11114;BME280;5610;52.154;9.198;2023-03-29T02:18:53;100863.69;;;6.88;100.00
11114;BME280;5610;52.154;9.198;2023-03-29T02:21:44;100861.38;;;6.81;100.00
11114;BME280;5610;52.154;9.198;2023-03-29T02:24:32;100855.88;;;6.65;100.00
11114;BME280;5610;52.154;9.198;2023-03-29T02:27:20;100855.56;;;6.51;100.00
11114;BME280;5610;52.154;9.198;2023-03-29T02:30:08;100839.94;;;6.45;100.00
11114;BME280;5610;52.154;9.198;2023-03-29T02:32:57;100835.66;;;6.42;100.00
11114;BME280;5610;52.154;9.198;2023-03-29T02:35:51;100828.91;;;6.33;100.00
11114;BME280;5610;52.154;9.198;2023-03-29T02:38:40;100824.00;;;6.24;100.00
11114;BME280;5610;52.154;9.198;2023-03-29T02:41:25;100832.31;;;6.37;100.00
11114;BME280;5610;52.154;9.198;2023-03-29T02:44:13;100814.78;;;6.35;100.00
11114;BME280;5610;52.154;9.198;2023-03-29T02:47:01;100813.97;;;6.32;100.00
11114;BME280;5610;52.154;9.198;2023-03-29T02:49:47;100798.91;;;6.35;100.00
11114;BME280;5610;52.154;9.198;2023-03-29T02:52:37;100800.63;;;6.36;100.00
11114;BME280;5610;52.154;9.198;2023-03-29T02:55:24;100793.31;;;6.42;100.00
11114;BME280;5610;52.154;9.198;2023-03-29T02:58:14;100802.38;;;6.57;100.00
11114;BME280;5610;52.154;9.198;2023-03-29T03:01:00;100803.63;;;6.69;100.00
11114;BME280;5610;52.154;9.198;2023-03-29T03:03:46;100793.78;;;6.72;100.00
11114;BME280;5610;52.154;9.198;2023-03-29T03:06:31;100799.41;;;6.85;100.00
11114;BME280;5610;52.154;9.198;2023-03-29T03:09:17;100798.91;;;6.96;100.00
11114;BME280;5610;52.154;9.198;2023-03-29T03:12:05;100795.00;;;7.04;100.00
11114;BME280;5610;52.154;9.198;2023-03-29T03:14:50;100794.88;;;7.07;100.00
11114;BME280;5610;52.154;9.198;2023-03-29T03:17:36;100782.34;;;7.11;100.00
11114;BME280;5610;52.154;9.198;2023-03-29T03:20:23;100788.28;;;7.16;100.00
11114;BME280;5610;52.154;9.198;2023-03-29T03:23:09;100774.09;;;7.17;100.00
11114;BME280;5610;52.154;9.198;2023-03-29T03:25:56;100762.53;;;7.20;100.00
11114;BME280;5610;52.154;9.198;2023-03-29T03:28:42;100762.94;;;7.10;100.00
11114;BME280;5610;52.154;9.198;2023-03-29T03:31:37;100759.34;;;7.11;100.00
11114;BME280;5610;52.154;9.198;2023-03-29T03:34:41;100763.34;;;7.01;100.00
11114;BME280;5610;52.154;9.198;2023-03-29T03:37:27;100762.41;;;7.02;100.00
11114;BME280;5610;52.154;9.198;2023-03-29T03:40:12;100761.38;;;6.86;100.00
11114;BME280;5610;52.154;9.198;2023-03-29T03:42:59;100753.97;;;6.74;100.00
11114;BME280;5610;52.154;9.198;2023-03-29T03:45:45;100751.25;;;6.75;100.00
11114;BME280;5610;52.154;9.198;2023-03-29T03:48:33;100746.28;;;6.68;100.00
11114;BME280;5610;52.154;9.198;2023-03-29T03:51:29;100757.13;;;6.82;100.00
11114;BME280;5610;52.154;9.198;2023-03-29T03:54:15;100753.78;;;6.58;100.00
11114;BME280;5610;52.154;9.198;2023-03-29T03:57:20;100738.94;;;6.74;100.00
11114;BME280;5610;52.154;9.198;2023-03-29T04:00:11;100748.50;;;6.58;100.00
11114;BME280;5610;52.154;9.198;2023-03-29T04:03:03;100741.34;;;6.60;100.00
11114;BME280;5610;52.154;9.198;2023-03-29T04:05:51;100745.00;;;6.57;100.00
11114;BME280;5610;52.154;9.198;2023-03-29T04:08:38;100746.38;;;6.46;100.00
11114;BME280;5610;52.154;9.198;2023-03-29T04:11:34;100749.22;;;6.61;100.00
11114;BME280;5610;52.154;9.198;2023-03-29T04:14:20;100748.09;;;6.67;100.00
11114;BME280;5610;52.154;9.198;2023-03-29T04:17:24;100751.66;;;6.66;100.00
11114;BME280;5610;52.154;9.198;2023-03-29T04:20:29;100753.13;;;6.73;100.00
11114;BME280;5610;52.154;9.198;2023-03-29T04:23:16;100749.28;;;6.80;100.00
11114;BME280;5610;52.154;9.198;2023-03-29T04:26:02;100741.84;;;6.68;100.00
11114;BME280;5610;52.154;9.198;2023-03-29T04:29:03;100731.41;;;6.85;100.00
11114;BME280;5610;52.154;9.198;2023-03-29T04:32:00;100744.56;;;6.87;100.00
11114;BME280;5610;52.154;9.198;2023-03-29T04:35:04;100747.22;;;6.87;100.00
11114;BME280;5610;52.154;9.198;2023-03-29T04:37:49;100745.03;;;6.76;100.00
11114;BME280;5610;52.154;9.198;2023-03-29T04:40:39;100740.97;;;6.88;100.00
11114;BME280;5610;52.154;9.198;2023-03-29T04:43:53;100748.41;;;6.80;100.00
11114;BME280;5610;52.154;9.198;2023-03-29T04:46:42;100751.72;;;6.85;100.00
11114;BME280;5610;52.154;9.198;2023-03-29T04:49:46;100743.13;;;6.80;100.00
11114;BME280;5610;52.154;9.198;2023-03-29T04:52:41;100740.66;;;6.75;100.00
11114;BME280;5610;52.154;9.198;2023-03-29T04:55:28;100736.63;;;6.67;100.00
11114;BME280;5610;52.154;9.198;2023-03-29T04:58:19;100729.88;;;6.80;100.00
11114;BME280;5610;52.154;9.198;2023-03-29T05:01:05;100728.81;;;6.84;100.00
11114;BME280;5610;52.154;9.198;2023-03-29T05:03:58;100729.06;;;6.98;100.00
11114;BME280;5610;52.154;9.198;2023-03-29T05:06:51;100727.38;;;6.77;100.00
11114;BME280;5610;52.154;9.198;2023-03-29T05:09:38;100714.22;;;6.94;100.00
11114;BME280;5610;52.154;9.198;2023-03-29T05:12:25;100717.94;;;6.90;100.00
11114;BME280;5610;52.154;9.198;2023-03-29T05:15:12;100717.28;;;6.85;100.00
11114;BME280;5610;52.154;9.198;2023-03-29T05:17:57;100709.00;;;6.93;100.00
11114;BME280;5610;52.154;9.198;2023-03-29T05:20:44;100706.22;;;6.75;100.00
11114;BME280;5610;52.154;9.198;2023-03-29T05:23:33;100707.03;;;6.77;100.00
11114;BME280;5610;52.154;9.198;2023-03-29T05:26:26;100711.16;;;6.84;100.00
11114;BME280;5610;52.154;9.198;2023-03-29T05:29:12;100711.03;;;6.67;100.00
11114;BME280;5610;52.154;9.198;2023-03-29T05:32:00;100710.16;;;6.67;100.00
11114;BME280;5610;52.154;9.198;2023-03-29T05:34:45;100708.50;;;6.84;100.00
11114;BME280;5610;52.154;9.198;2023-03-29T05:37:31;100705.88;;;6.83;100.00
11114;BME280;5610;52.154;9.198;2023-03-29T05:40:19;100699.63;;;6.85;100.00
11114;BME280;5610;52.154;9.198;2023-03-29T05:43:25;100694.53;;;7.00;100.00
11114;BME280;5610;52.154;9.198;2023-03-29T05:46:11;100698.41;;;7.11;100.00
11114;BME280;5610;52.154;9.198;2023-03-29T05:49:04;100696.13;;;7.23;100.00
11114;BME280;5610;52.154;9.198;2023-03-29T05:52:08;100695.41;;;7.38;100.00
11114;BME280;5610;52.154;9.198;2023-03-29T05:54:54;100689.16;;;7.39;100.00
11114;BME280;5610;52.154;9.198;2023-03-29T05:57:40;100690.59;;;7.46;100.00
11114;BME280;5610;52.154;9.198;2023-03-29T06:00:27;100693.03;;;7.51;100.00
11114;BME280;5610;52.154;9.198;2023-03-29T06:03:26;100691.59;;;7.62;100.00
11114;BME280;5610;52.154;9.198;2023-03-29T06:06:14;100689.72;;;7.82;100.00
11114;BME280;5610;52.154;9.198;2023-03-29T06:09:00;100691.41;;;8.02;100.00
11114;BME280;5610;52.154;9.198;2023-03-29T06:11:51;100679.78;;;8.21;100.00
11114;BME280;5610;52.154;9.198;2023-03-29T06:14:43;100677.16;;;8.39;100.00
11114;BME280;5610;52.154;9.198;2023-03-29T06:17:52;100687.97;;;8.69;100.00
11114;BME280;5610;52.154;9.198;2023-03-29T06:20:38;100683.44;;;8.87;100.00
11114;BME280;5610;52.154;9.198;2023-03-29T06:23:29;100677.47;;;8.66;100.00
11114;BME280;5610;52.154;9.198;2023-03-29T06:26:14;100679.94;;;8.86;100.00
11114;BME280;5610;52.154;9.198;2023-03-29T06:29:00;100679.28;;;8.98;100.00
11114;BME280;5610;52.154;9.198;2023-03-29T06:31:47;100682.22;;;9.10;100.00
11114;BME280;5610;52.154;9.198;2023-03-29T06:34:54;100672.19;;;9.15;100.00
11114;BME280;5610;52.154;9.198;2023-03-29T06:37:51;100672.34;;;9.12;100.00
11114;BME280;5610;52.154;9.198;2023-03-29T06:40:46;100676.72;;;9.13;100.00
11114;BME280;5610;52.154;9.198;2023-03-29T06:43:32;100677.16;;;9.21;100.00
11114;BME280;5610;52.154;9.198;2023-03-29T06:46:24;100674.50;;;9.21;100.00
11114;BME280;5610;52.154;9.198;2023-03-29T06:49:17;100687.34;;;8.97;100.00
11114;BME280;5610;52.154;9.198;2023-03-29T06:52:36;100685.53;;;8.82;100.00
11114;BME280;5610;52.154;9.198;2023-03-29T06:55:22;100678.78;;;9.07;100.00
11114;BME280;5610;52.154;9.198;2023-03-29T06:58:08;100670.47;;;9.14;100.00
11114;BME280;5610;52.154;9.198;2023-03-29T07:00:58;100664.63;;;9.07;100.00
11114;BME280;5610;52.154;9.198;2023-03-29T07:03:54;100665.94;;;9.31;100.00
11114;BME280;5610;52.154;9.198;2023-03-29T07:06:46;100664.31;;;9.45;100.00
11114;BME280;5610;52.154;9.198;2023-03-29T07:09:43;100673.13;;;9.61;100.00
11114;BME280;5610;52.154;9.198;2023-03-29T07:12:49;100687.09;;;9.64;100.00
11114;BME280;5610;52.154;9.198;2023-03-29T07:15:34;100676.22;;;9.53;100.00
11114;BME280;5610;52.154;9.198;2023-03-29T07:18:43;100672.78;;;9.67;100.00
11114;BME280;5610;52.154;9.198;2023-03-29T07:21:33;100671.19;;;9.79;100.00
11114;BME280;5610;52.154;9.198;2023-03-29T07:24:19;100678.31;;;9.94;100.00
11114;BME280;5610;52.154;9.198;2023-03-29T07:27:06;100688.28;;;9.90;100.00
11114;BME280;5610;52.154;9.198;2023-03-29T07:29:51;100685.22;;;9.82;100.00
11114;BME280;5610;52.154;9.198;2023-03-29T07:32:38;100701.84;;;10.02;100.00
11114;BME280;5610;52.154;9.198;2023-03-29T07:35:40;100692.69;;;10.06;100.00
11114;BME280;5610;52.154;9.198;2023-03-29T07:38:26;100691.84;;;10.05;100.00
11114;BME280;5610;52.154;9.198;2023-03-29T07:41:18;100695.31;;;9.91;100.00
11114;BME280;5610;52.154;9.198;2023-03-29T07:44:08;100707.47;;;10.11;100.00
11114;BME280;5610;52.154;9.198;2023-03-29T07:46:53;100712.97;;;10.24;100.00
11114;BME280;5610;52.154;9.198;2023-03-29T07:49:38;100709.34;;;10.25;100.00
11114;BME280;5610;52.154;9.198;2023-03-29T07:52:25;100704.69;;;10.29;100.00
11114;BME280;5610;52.154;9.198;2023-03-29T07:55:13;100700.25;;;10.29;100.00
11114;BME280;5610;52.154;9.198;2023-03-29T07:58:11;100705.13;;;10.51;100.00
11114;BME280;5610;52.154;9.198;2023-03-29T08:00:58;100700.94;;;10.47;100.00
11114;BME280;5610;52.154;9.198;2023-03-29T08:04:09;100703.69;;;10.15;100.00
11114;BME280;5610;52.154;9.198;2023-03-29T08:07:14;100701.28;;;10.11;100.00
11114;BME280;5610;52.154;9.198;2023-03-29T08:10:29;100690.69;;;9.95;100.00
11114;BME280;5610;52.154;9.198;2023-03-29T08:13:25;100686.25;;;10.10;100.00
11114;BME280;5610;52.154;9.198;2023-03-29T08:16:30;100682.81;;;10.24;100.00
11114;BME280;5610;52.154;9.198;2023-03-29T08:19:22;100690.00;;;10.37;100.00
11114;BME280;5610;52.154;9.198;2023-03-29T08:22:20;100690.38;;;10.45;100.00
11114;BME280;5610;52.154;9.198;2023-03-29T08:25:30;100688.13;;;10.68;100.00
11114;BME280;5610;52.154;9.198;2023-03-29T08:28:16;100691.38;;;11.02;100.00
11114;BME280;5610;52.154;9.198;2023-03-29T08:31:08;100678.13;;;11.14;100.00
11114;BME280;5610;52.154;9.198;2023-03-29T08:33:58;100697.84;;;10.97;100.00
11114;BME280;5610;52.154;9.198;2023-03-29T08:37:01;100690.53;;;10.87;100.00
11114;BME280;5610;52.154;9.198;2023-03-29T08:39:59;100690.88;;;10.66;100.00
11114;BME280;5610;52.154;9.198;2023-03-29T08:43:10;100704.19;;;10.22;100.00
11114;BME280;5610;52.154;9.198;2023-03-29T08:46:27;100689.31;;;9.88;100.00
11114;BME280;5610;52.154;9.198;2023-03-29T08:49:24;100691.34;;;9.99;100.00
11114;BME280;5610;52.154;9.198;2023-03-29T08:52:18;100694.13;;;9.81;100.00
11114;BME280;5610;52.154;9.198;2023-03-29T08:55:11;100700.41;;;9.64;100.00
11114;BME280;5610;52.154;9.198;2023-03-29T08:58:29;100703.78;;;9.52;100.00
11114;BME280;5610;52.154;9.198;2023-03-29T09:01:16;100697.25;;;9.42;100.00
11114;BME280;5610;52.154;9.198;2023-03-29T09:04:12;100699.28;;;9.37;100.00
11114;BME280;5610;52.154;9.198;2023-03-29T09:07:09;100711.56;;;9.40;100.00
11114;BME280;5610;52.154;9.198;2023-03-29T09:10:03;100692.88;;;9.41;100.00
11114;BME280;5610;52.154;9.198;2023-03-29T09:13:08;100700.59;;;9.61;100.00
11114;BME280;5610;52.154;9.198;2023-03-29T09:16:03;100697.44;;;9.39;100.00
11114;BME280;5610;52.154;9.198;2023-03-29T09:19:02;100697.50;;;9.38;100.00
11114;BME280;5610;52.154;9.198;2023-03-29T09:21:57;100703.69;;;9.38;100.00
11114;BME280;5610;52.154;9.198;2023-03-29T09:24:57;100704.97;;;9.31;100.00
11114;BME280;5610;52.154;9.198;2023-03-29T09:27:47;100704.78;;;9.50;100.00
11114;BME280;5610;52.154;9.198;2023-03-29T09:30:50;100707.53;;;9.64;100.00
11114;BME280;5610;52.154;9.198;2023-03-29T09:33:39;100704.13;;;9.46;100.00
11114;BME280;5610;52.154;9.198;2023-03-29T09:36:44;100694.16;;;9.66;100.00
11114;BME280;5610;52.154;9.198;2023-03-29T09:39:36;100689.16;;;9.75;100.00
11114;BME280;5610;52.154;9.198;2023-03-29T09:42:28;100682.19;;;9.88;100.00
11114;BME280;5610;52.154;9.198;2023-03-29T09:45:14;100684.63;;;10.23;100.00
11114;BME280;5610;52.154;9.198;2023-03-29T09:48:09;100683.56;;;10.26;100.00
11114;BME280;5610;52.154;9.198;2023-03-29T09:50:56;100678.78;;;10.16;100.00
11114;BME280;5610;52.154;9.198;2023-03-29T09:53:42;100673.16;;;10.37;100.00
11114;BME280;5610;52.154;9.198;2023-03-29T09:56:43;100666.31;;;10.90;100.00
11114;BME280;5610;52.154;9.198;2023-03-29T09:59:32;100666.03;;;10.94;100.00
11114;BME280;5610;52.154;9.198;2023-03-29T10:02:19;100669.00;;;10.90;100.00
11114;BME280;5610;52.154;9.198;2023-03-29T10:05:06;100663.88;;;10.87;100.00
11114;BME280;5610;52.154;9.198;2023-03-29T10:07:56;100678.63;;;10.92;100.00
11114;BME280;5610;52.154;9.198;2023-03-29T10:10:42;100674.22;;;10.91;100.00
11114;BME280;5610;52.154;9.198;2023-03-29T10:13:29;100677.94;;;11.03;100.00
11114;BME280;5610;52.154;9.198;2023-03-29T10:16:20;100655.66;;;11.04;100.00
11114;BME280;5610;52.154;9.198;2023-03-29T10:19:19;100652.44;;;11.40;100.00
11114;BME280;5610;52.154;9.198;2023-03-29T10:22:06;100670.06;;;11.70;100.00
11114;BME280;5610;52.154;9.198;2023-03-29T10:24:53;100677.22;;;11.69;100.00
11114;BME280;5610;52.154;9.198;2023-03-29T10:27:41;100671.78;;;11.85;100.00
11114;BME280;5610;52.154;9.198;2023-03-29T10:30:27;100677.00;;;12.26;100.00
11114;BME280;5610;52.154;9.198;2023-03-29T10:33:18;100669.56;;;12.57;100.00
11114;BME280;5610;52.154;9.198;2023-03-29T10:36:06;100666.31;;;12.39;100.00
11114;BME280;5610;52.154;9.198;2023-03-29T10:38:53;100665.69;;;12.35;100.00
11114;BME280;5610;52.154;9.198;2023-03-29T10:41:40;100651.16;;;12.65;99.46
11114;BME280;5610;52.154;9.198;2023-03-29T10:44:30;100649.41;;;13.02;99.21
11114;BME280;5610;52.154;9.198;2023-03-29T10:47:17;100635.28;;;13.50;95.93
11114;BME280;5610;52.154;9.198;2023-03-29T10:50:07;100647.03;;;14.30;90.13
11114;BME280;5610;52.154;9.198;2023-03-29T10:52:53;100637.41;;;14.96;85.80
11114;BME280;5610;52.154;9.198;2023-03-29T10:55:44;100650.19;;;14.70;81.63
11114;BME280;5610;52.154;9.198;2023-03-29T10:58:39;100636.28;;;14.99;81.28
11114;BME280;5610;52.154;9.198;2023-03-29T11:01:34;100638.16;;;14.87;82.55
11114;BME280;5610;52.154;9.198;2023-03-29T11:04:27;100626.19;;;14.69;82.96
11114;BME280;5610;52.154;9.198;2023-03-29T11:07:28;100620.44;;;15.18;80.97
11114;BME280;5610;52.154;9.198;2023-03-29T11:10:28;100608.22;;;16.22;79.20
11114;BME280;5610;52.154;9.198;2023-03-29T11:13:20;100621.31;;;17.87;67.07
11114;BME280;5610;52.154;9.198;2023-03-29T11:16:17;100615.25;;;18.98;62.82
11114;BME280;5610;52.154;9.198;2023-03-29T11:19:35;100629.78;;;17.63;63.02
11114;BME280;5610;52.154;9.198;2023-03-29T11:22:35;100629.75;;;15.46;72.09
11114;BME280;5610;52.154;9.198;2023-03-29T11:25:32;100625.72;;;15.52;75.74
11114;BME280;5610;52.154;9.198;2023-03-29T11:28:28;100630.84;;;15.66;77.37
11114;BME280;5610;52.154;9.198;2023-03-29T11:31:23;100632.75;;;14.98;83.16
11114;BME280;5610;52.154;9.198;2023-03-29T11:34:21;100634.94;;;13.78;97.61
11114;BME280;5610;52.154;9.198;2023-03-29T11:37:14;100621.97;;;13.24;100.00
11114;BME280;5610;52.154;9.198;2023-03-29T11:40:15;100628.13;;;13.01;100.00
11114;BME280;5610;52.154;9.198;2023-03-29T11:43:10;100637.78;;;12.40;100.00
11114;BME280;5610;52.154;9.198;2023-03-29T11:46:00;100629.44;;;12.31;100.00
11114;BME280;5610;52.154;9.198;2023-03-29T11:48:49;100633.59;;;12.61;100.00
11114;BME280;5610;52.154;9.198;2023-03-29T11:51:38;100629.75;;;12.78;100.00
11114;BME280;5610;52.154;9.198;2023-03-29T11:54:28;100629.78;;;12.65;100.00
11114;BME280;5610;52.154;9.198;2023-03-29T11:57:21;100627.22;;;12.63;100.00
11114;BME280;5610;52.154;9.198;2023-03-29T12:00:12;100632.72;;;12.99;100.00
11114;BME280;5610;52.154;9.198;2023-03-29T12:03:05;100647.19;;;12.83;100.00
11114;BME280;5610;52.154;9.198;2023-03-29T12:05:56;100628.00;;;13.02;100.00
11114;BME280;5610;52.154;9.198;2023-03-29T12:08:49;100634.38;;;12.63;100.00
11114;BME280;5610;52.154;9.198;2023-03-29T12:11:37;100625.06;;;12.43;100.00
11114;BME280;5610;52.154;9.198;2023-03-29T12:14:28;100630.41;;;12.43;100.00
11114;BME280;5610;52.154;9.198;2023-03-29T12:17:18;100620.91;;;12.52;100.00
11114;BME280;5610;52.154;9.198;2023-03-29T12:20:10;100623.06;;;13.09;100.00
11114;BME280;5610;52.154;9.198;2023-03-29T12:23:01;100614.03;;;13.59;100.00
11114;BME280;5610;52.154;9.198;2023-03-29T12:25:52;100612.34;;;13.93;100.00
11114;BME280;5610;52.154;9.198;2023-03-29T12:28:55;100609.25;;;14.22;100.00
11114;BME280;5610;52.154;9.198;2023-03-29T12:31:53;100605.75;;;14.33;100.00
11114;BME280;5610;52.154;9.198;2023-03-29T12:34:57;100605.75;;;14.44;100.00
11114;BME280;5610;52.154;9.198;2023-03-29T12:38:15;100602.13;;;14.45;100.00
11114;BME280;5610;52.154;9.198;2023-03-29T12:41:22;100606.00;;;14.41;100.00
11114;BME280;5610;52.154;9.198;2023-03-29T12:44:30;100607.03;;;14.05;100.00
11114;BME280;5610;52.154;9.198;2023-03-29T12:47:40;100606.13;;;13.93;100.00
11114;BME280;5610;52.154;9.198;2023-03-29T12:50:35;100603.13;;;13.97;100.00
11114;BME280;5610;52.154;9.198;2023-03-29T12:53:23;100612.97;;;13.97;100.00
11114;BME280;5610;52.154;9.198;2023-03-29T12:56:12;100605.97;;;13.48;100.00
11114;BME280;5610;52.154;9.198;2023-03-29T12:59:16;100601.53;;;13.23;100.00
11114;BME280;5610;52.154;9.198;2023-03-29T13:02:25;100599.28;;;13.17;100.00
11114;BME280;5610;52.154;9.198;2023-03-29T13:05:31;100604.22;;;13.10;100.00
11114;BME280;5610;52.154;9.198;2023-03-29T13:08:21;100583.38;;;13.03;100.00
11114;BME280;5610;52.154;9.198;2023-03-29T13:11:10;100586.75;;;12.81;100.00
11114;BME280;5610;52.154;9.198;2023-03-29T13:13:58;100578.63;;;12.82;100.00
11114;BME280;5610;52.154;9.198;2023-03-29T13:16:44;100571.41;;;12.96;100.00
11114;BME280;5610;52.154;9.198;2023-03-29T13:19:33;100568.03;;;13.17;100.00
11114;BME280;5610;52.154;9.198;2023-03-29T13:22:35;100564.31;;;13.44;100.00
11114;BME280;5610;52.154;9.198;2023-03-29T13:25:42;100554.06;;;13.38;100.00
11114;BME280;5610;52.154;9.198;2023-03-29T13:28:35;100557.13;;;13.44;100.00
11114;BME280;5610;52.154;9.198;2023-03-29T13:31:29;100550.72;;;13.10;100.00
11114;BME280;5610;52.154;9.198;2023-03-29T13:34:30;100557.03;;;13.22;100.00
11114;BME280;5610;52.154;9.198;2023-03-29T13:37:29;100565.19;;;13.08;100.00
11114;BME280;5610;52.154;9.198;2023-03-29T13:40:32;100555.22;;;12.73;100.00
11114;BME280;5610;52.154;9.198;2023-03-29T13:43:31;100559.88;;;12.95;100.00
11114;BME280;5610;52.154;9.198;2023-03-29T13:46:23;100550.59;;;13.25;100.00
11114;BME280;5610;52.154;9.198;2023-03-29T13:49:15;100548.63;;;13.39;100.00
11114;BME280;5610;52.154;9.198;2023-03-29T13:52:12;100550.50;;;13.96;100.00
11114;BME280;5610;52.154;9.198;2023-03-29T13:55:03;100543.00;;;14.24;100.00
11114;BME280;5610;52.154;9.198;2023-03-29T13:57:53;100546.03;;;14.30;100.00
11114;BME280;5610;52.154;9.198;2023-03-29T14:00:44;100532.81;;;14.74;100.00
11114;BME280;5610;52.154;9.198;2023-03-29T14:03:38;100525.97;;;15.24;100.00
11114;BME280;5610;52.154;9.198;2023-03-29T14:06:26;100521.94;;;15.62;100.00
11114;BME280;5610;52.154;9.198;2023-03-29T14:09:13;100530.16;;;15.81;100.00
11114;BME280;5610;52.154;9.198;2023-03-29T14:12:03;100523.28;;;15.88;100.00
11114;BME280;5610;52.154;9.198;2023-03-29T14:14:51;100524.06;;;16.00;100.00
11114;BME280;5610;52.154;9.198;2023-03-29T14:17:37;100516.03;;;16.10;100.00
11114;BME280;5610;52.154;9.198;2023-03-29T14:20:24;100517.06;;;16.18;100.00
11114;BME280;5610;52.154;9.198;2023-03-29T14:23:11;100520.91;;;16.16;100.00
11114;BME280;5610;52.154;9.198;2023-03-29T14:26:07;100507.28;;;16.08;100.00
11114;BME280;5610;52.154;9.198;2023-03-29T14:28:56;100506.09;;;16.01;100.00
11114;BME280;5610;52.154;9.198;2023-03-29T14:31:42;100511.41;;;15.91;100.00
11114;BME280;5610;52.154;9.198;2023-03-29T14:34:27;100514.16;;;15.80;100.00
11114;BME280;5610;52.154;9.198;2023-03-29T14:37:16;100501.59;;;15.80;100.00
11114;BME280;5610;52.154;9.198;2023-03-29T14:40:03;100502.56;;;15.79;100.00
11114;BME280;5610;52.154;9.198;2023-03-29T14:42:54;100503.34;;;15.70;100.00
11114;BME280;5610;52.154;9.198;2023-03-29T14:45:41;100499.84;;;15.58;100.00
11114;BME280;5610;52.154;9.198;2023-03-29T14:48:26;100499.19;;;15.45;100.00
11114;BME280;5610;52.154;9.198;2023-03-29T14:51:13;100497.38;;;15.34;100.00
11114;BME280;5610;52.154;9.198;2023-03-29T14:54:00;100492.56;;;15.17;100.00
11114;BME280;5610;52.154;9.198;2023-03-29T14:56:47;100501.25;;;15.09;100.00
11114;BME280;5610;52.154;9.198;2023-03-29T14:59:35;100498.16;;;14.71;100.00
11114;BME280;5610;52.154;9.198;2023-03-29T15:02:24;100486.38;;;14.73;100.00
11114;BME280;5610;52.154;9.198;2023-03-29T15:05:22;100481.72;;;14.75;100.00
11114;BME280;5610;52.154;9.198;2023-03-29T15:08:12;100480.28;;;14.49;100.00